createdAt,value
2018-02-22T00:00:26.620Z,6.30
2018-02-22T00:01:26.611Z,6.60
2018-02-22T00:02:26.612Z,6.90
2018-02-22T00:03:26.598Z,6.50
2018-02-22T00:04:26.601Z,6.40
2018-02-22T00:05:26.580Z,6.40
2018-02-22T00:06:26.585Z,6.40
2018-02-22T00:07:26.582Z,6.60
2018-02-22T00:08:26.575Z,6.20
2018-02-22T00:09:26.563Z,6.40
2018-02-22T00:10:26.562Z,6.20
2018-02-22T00:11:26.558Z,6.80
2018-02-22T00:12:26.546Z,6.60
2018-02-22T00:13:26.536Z,6.20
2018-02-22T00:14:26.538Z,6.50
2018-02-22T00:15:26.530Z,6.70
2018-02-22T00:16:26.528Z,6.80
2018-02-22T00:17:26.526Z,6.50
2018-02-22T00:18:26.516Z,6.30
2018-02-22T00:19:26.496Z,6.20
2018-02-22T00:20:26.507Z,6.60
2018-02-22T00:21:26.496Z,6.60
2018-02-22T00:22:26.504Z,6.40
2018-02-22T00:23:26.491Z,6.10
2018-02-22T00:24:26.486Z,6.50
2018-02-22T00:25:26.473Z,6.80
2018-02-22T00:26:26.479Z,5.90
2018-02-22T00:27:26.467Z,7.10
2018-02-22T00:28:26.456Z,6.40
2018-02-22T00:29:26.452Z,6.40
2018-02-22T00:30:26.447Z,6.70
2018-02-22T00:31:26.446Z,6.10
2018-02-22T00:32:26.443Z,6.30
2018-02-22T00:33:26.439Z,6.30
2018-02-22T00:34:26.422Z,6.30
2018-02-22T00:35:26.416Z,6.60
2018-02-22T00:36:26.427Z,6.10
2018-02-22T00:37:26.400Z,6.60
2018-02-22T00:38:26.407Z,6.40
2018-02-22T00:39:26.398Z,6.50
2018-02-22T00:40:26.412Z,6.50
2018-02-22T00:41:26.398Z,6.80
2018-02-22T00:42:26.384Z,6.20
2018-02-22T00:43:26.378Z,6.30
2018-02-22T00:44:26.377Z,6.70
2018-02-22T00:45:26.366Z,6.60
2018-02-22T00:46:26.357Z,6.40
2018-02-22T00:47:26.368Z,6.60
2018-02-22T00:48:26.352Z,6.60
2018-02-22T00:49:26.343Z,6.50
2018-02-22T00:50:26.329Z,6.30
2018-02-22T00:51:26.337Z,6.90
2018-02-22T00:52:26.322Z,6.50
2018-02-22T00:53:26.314Z,6.70
2018-02-22T00:54:26.322Z,5.90
2018-02-22T00:55:26.307Z,6.50
2018-02-22T00:56:26.303Z,6.20
2018-02-22T00:57:26.304Z,6.70
2018-02-22T00:58:26.296Z,6.60
2018-02-22T00:59:26.289Z,6.70
2018-02-22T01:00:26.283Z,6.40
2018-02-22T01:01:26.280Z,6.50
2018-02-22T01:02:26.268Z,6.70
2018-02-22T01:03:26.259Z,6.60
2018-02-22T01:04:26.260Z,6.50
2018-02-22T01:05:26.257Z,6.10
2018-02-22T01:06:26.247Z,6.50
2018-02-22T01:07:26.245Z,7.00
2018-02-22T01:08:26.239Z,6.10
2018-02-22T01:09:26.243Z,6.30
2018-02-22T01:10:26.229Z,6.80
2018-02-22T01:11:26.218Z,6.90
2018-02-22T01:12:26.214Z,6.50
2018-02-22T01:13:26.210Z,7.10
2018-02-22T01:14:26.211Z,6.90
2018-02-22T01:15:26.196Z,6.80
2018-02-22T01:16:26.193Z,6.40
2018-02-22T01:17:26.178Z,6.00
2018-02-22T01:18:26.189Z,6.40
2018-02-22T01:19:26.182Z,6.60
2018-02-22T01:20:26.169Z,6.10
2018-02-22T01:21:26.168Z,6.40
2018-02-22T01:22:26.155Z,6.10
2018-02-22T01:23:26.150Z,6.40
2018-02-22T01:24:26.152Z,6.20
2018-02-22T01:25:26.138Z,6.40
2018-02-22T01:26:26.139Z,6.00
2018-02-22T01:27:26.144Z,6.40
2018-02-22T01:28:26.125Z,6.40
2018-02-22T01:29:26.119Z,6.30
2018-02-22T01:30:26.114Z,6.40
2018-02-22T01:31:26.108Z,6.60
2018-02-22T01:32:26.113Z,6.30
2018-02-22T01:33:26.092Z,5.90
2018-02-22T01:34:26.091Z,6.60
2018-02-22T01:35:26.088Z,6.20
2018-02-22T01:36:26.096Z,6.20
2018-02-22T01:37:26.078Z,6.30
2018-02-22T01:38:26.068Z,6.40
2018-02-22T01:39:26.062Z,6.30
2018-02-22T01:40:26.053Z,6.70
2018-02-22T01:41:26.054Z,6.20
2018-02-22T01:42:26.053Z,6.50
2018-02-22T01:43:26.044Z,6.70
2018-02-22T01:44:26.033Z,6.50
2018-02-22T01:45:26.024Z,6.30
2018-02-22T01:46:26.010Z,6.70
2018-02-22T01:47:26.008Z,6.80
2018-02-22T01:48:26.023Z,6.60
2018-02-22T01:49:26.018Z,6.60
2018-02-22T01:50:25.992Z,6.30
2018-02-22T01:51:25.995Z,6.20
2018-02-22T01:52:25.998Z,6.70
2018-02-22T01:53:25.991Z,6.40
2018-02-22T01:54:25.986Z,6.30
2018-02-22T01:55:25.978Z,6.20
2018-02-22T01:56:25.969Z,6.30
2018-02-22T01:57:25.975Z,6.10
2018-02-22T01:58:25.954Z,6.30
2018-02-22T01:59:25.949Z,6.40
2018-02-22T02:00:25.957Z,6.30
2018-02-22T02:01:25.943Z,6.50
2018-02-22T02:02:25.940Z,6.50
2018-02-22T02:03:25.920Z,6.00
2018-02-22T02:04:25.923Z,6.40
2018-02-22T02:05:25.916Z,6.40
2018-02-22T02:06:25.902Z,6.10
2018-02-22T02:07:25.895Z,6.90
2018-02-22T02:08:25.899Z,6.40
2018-02-22T02:09:25.893Z,6.20
2018-02-22T02:10:25.880Z,6.50
2018-02-22T02:11:25.883Z,6.20
2018-02-22T02:12:25.878Z,6.50
2018-02-22T02:13:25.883Z,6.30
2018-02-22T02:14:25.856Z,6.40
2018-02-22T02:15:25.864Z,6.40
2018-02-22T02:16:25.853Z,6.60
2018-02-22T02:17:25.849Z,6.40
2018-02-22T02:18:25.845Z,6.40
2018-02-22T02:19:25.851Z,6.50
2018-02-22T02:20:25.849Z,6.30
2018-02-22T02:21:25.828Z,6.40
2018-02-22T02:22:25.825Z,6.30
2018-02-22T02:23:25.818Z,6.70
2018-02-22T02:24:25.821Z,6.30
2018-02-22T02:25:25.811Z,6.30
2018-02-22T02:26:25.810Z,6.10
2018-02-22T02:27:25.799Z,6.40
2018-02-22T02:28:25.791Z,6.30
2018-02-22T02:29:25.779Z,6.80
2018-02-22T02:30:25.787Z,6.00
2018-02-22T02:31:25.769Z,6.20
2018-02-22T02:32:25.770Z,6.40
2018-02-22T02:33:25.765Z,6.10
2018-02-22T02:34:25.757Z,6.30
2018-02-22T02:35:25.753Z,6.30
2018-02-22T02:36:25.745Z,6.20
2018-02-22T02:37:25.739Z,6.20
2018-02-22T02:38:25.734Z,6.30
2018-02-22T02:39:25.735Z,6.30
2018-02-22T02:40:25.731Z,6.30
2018-02-22T02:41:25.716Z,6.20
2018-02-22T02:42:25.710Z,6.30
2018-02-22T02:43:25.710Z,6.20
2018-02-22T02:44:25.712Z,6.20
2018-02-22T02:45:25.694Z,6.10
2018-02-22T02:46:25.689Z,6.20
2018-02-22T02:47:25.684Z,6.20
2018-02-22T02:48:25.681Z,6.40
2018-02-22T02:49:25.669Z,6.20
2018-02-22T02:50:25.666Z,6.30
2018-02-22T02:51:25.649Z,6.10
2018-02-22T02:52:25.650Z,6.30
2018-02-22T02:53:25.650Z,6.30
2018-02-22T02:54:25.645Z,6.10
2018-02-22T02:55:25.641Z,6.40
2018-02-22T02:56:25.637Z,6.10
2018-02-22T02:57:25.633Z,6.40
2018-02-22T02:58:25.627Z,6.50
2018-02-22T02:59:25.619Z,6.20
2018-02-22T03:00:25.620Z,6.60
2018-02-22T03:01:25.610Z,6.60
2018-02-22T03:02:25.602Z,6.30
2018-02-22T03:03:25.594Z,6.10
2018-02-22T03:04:25.595Z,6.40
2018-02-22T03:05:25.599Z,6.20
2018-02-22T03:06:25.586Z,6.30
2018-02-22T03:07:25.568Z,6.30
2018-02-22T03:08:25.571Z,6.30
2018-02-22T03:09:25.554Z,6.80
2018-02-22T03:10:25.559Z,6.60
2018-02-22T03:11:25.546Z,6.50
2018-02-22T03:12:25.549Z,6.70
2018-02-22T03:13:25.546Z,6.20
2018-02-22T03:14:25.537Z,6.50
2018-02-22T03:15:25.525Z,6.30
2018-02-22T03:16:25.530Z,6.40
2018-02-22T03:17:25.508Z,6.60
2018-02-22T03:18:25.526Z,6.30
2018-02-22T03:19:25.505Z,6.60
2018-02-22T03:20:25.492Z,6.60
2018-02-22T03:21:25.491Z,6.00
2018-02-22T03:22:25.494Z,6.70
2018-02-22T03:23:25.480Z,6.70
2018-02-22T03:24:25.475Z,6.60
2018-02-22T03:25:25.480Z,6.20
2018-02-22T03:26:25.464Z,6.20
2018-02-22T03:27:25.469Z,6.20
2018-02-22T03:28:25.457Z,6.30
2018-02-22T03:29:25.452Z,6.40
2018-02-22T03:30:25.451Z,6.60
2018-02-22T03:31:25.450Z,6.20
2018-02-22T03:32:25.432Z,6.40
2018-02-22T03:33:25.436Z,6.20
2018-02-22T03:34:25.425Z,6.60
2018-02-22T03:35:25.420Z,6.40
2018-02-22T03:36:25.408Z,6.40
2018-02-22T03:37:25.416Z,6.10
2018-02-22T03:38:25.401Z,6.60
2018-02-22T03:39:25.400Z,6.40
2018-02-22T03:40:25.391Z,6.00
2018-02-22T03:41:25.383Z,6.10
2018-02-22T03:42:25.396Z,6.00
2018-02-22T03:43:25.371Z,6.10
2018-02-22T03:44:25.366Z,5.90
2018-02-22T03:45:25.365Z,6.20
2018-02-22T03:46:25.362Z,6.20
2018-02-22T03:47:25.352Z,6.10
2018-02-22T03:48:25.330Z,5.90
2018-02-22T03:49:25.337Z,6.40
2018-02-22T03:50:25.337Z,6.10
2018-02-22T03:51:25.334Z,6.60
2018-02-22T03:52:25.328Z,6.30
2018-02-22T03:53:25.309Z,6.10
2018-02-22T03:54:25.351Z,6.40
2018-02-22T03:55:25.297Z,5.90
2018-02-22T03:56:25.300Z,6.50
2018-02-22T03:57:25.301Z,6.20
2018-02-22T03:58:25.291Z,6.60
2018-02-22T03:59:25.281Z,6.10
2018-02-22T04:00:25.286Z,6.10
2018-02-22T04:01:25.270Z,6.30
2018-02-22T04:02:25.265Z,6.30
2018-02-22T04:03:25.256Z,6.10
2018-02-22T04:04:25.243Z,6.00
2018-02-22T04:05:25.246Z,6.00
2018-02-22T04:06:25.236Z,6.60
2018-02-22T04:07:25.242Z,6.00
2018-02-22T04:08:25.232Z,6.10
2018-02-22T04:09:25.237Z,6.00
2018-02-22T04:10:25.222Z,6.10
2018-02-22T04:11:25.223Z,6.40
2018-02-22T04:12:25.203Z,6.00
2018-02-22T04:13:25.206Z,6.20
2018-02-22T04:14:25.200Z,6.00
2018-02-22T04:15:25.190Z,6.00
2018-02-22T04:16:25.192Z,5.80
2018-02-22T04:17:25.176Z,6.00
2018-02-22T04:18:25.181Z,6.10
2018-02-22T04:19:25.175Z,6.00
2018-02-22T04:20:25.165Z,6.20
2018-02-22T04:21:25.156Z,6.00
2018-02-22T04:22:25.153Z,6.00
2018-02-22T04:23:25.185Z,6.20
2018-02-22T04:24:25.156Z,6.00
2018-02-22T04:25:25.137Z,5.70
2018-02-22T04:26:25.134Z,6.30
2018-02-22T04:27:25.123Z,6.30
2018-02-22T04:28:25.116Z,6.20
2018-02-22T04:29:25.121Z,6.20
2018-02-22T04:30:25.107Z,6.20
2018-02-22T04:31:25.097Z,6.20
2018-02-22T04:32:25.096Z,6.30
2018-02-22T04:33:25.101Z,6.00
2018-02-22T04:34:25.092Z,6.30
2018-02-22T04:35:25.081Z,6.10
2018-02-22T04:36:25.078Z,6.00
2018-02-22T04:37:25.063Z,6.10
2018-02-22T04:38:25.067Z,6.30
2018-02-22T04:39:25.061Z,6.20
2018-02-22T04:40:25.054Z,6.30
2018-02-22T04:41:25.051Z,5.90
2018-02-22T04:42:25.046Z,6.20
2018-02-22T04:43:25.037Z,5.70
2018-02-22T04:44:25.036Z,5.90
2018-02-22T04:45:25.032Z,6.00
2018-02-22T04:46:25.026Z,5.90
2018-02-22T04:47:25.016Z,6.30
2018-02-22T04:48:25.018Z,5.90
2018-02-22T04:49:25.003Z,6.50
2018-02-22T04:50:25.004Z,5.60
2018-02-22T04:51:24.992Z,6.20
2018-02-22T04:52:24.988Z,6.20
2018-02-22T04:53:24.979Z,6.00
2018-02-22T04:54:24.987Z,6.00
2018-02-22T04:55:24.972Z,5.90
2018-02-22T04:56:24.967Z,6.20
2018-02-22T04:57:24.960Z,6.10
2018-02-22T04:58:24.958Z,5.80
2018-02-22T04:59:24.943Z,5.90
2018-02-22T05:00:24.944Z,5.60
2018-02-22T05:01:24.942Z,6.20
2018-02-22T05:02:24.931Z,6.10
2018-02-22T05:03:24.922Z,5.70
2018-02-22T05:04:24.915Z,5.80
2018-02-22T05:05:24.912Z,5.50
2018-02-22T05:06:24.915Z,6.00
2018-02-22T05:07:24.904Z,5.70
2018-02-22T05:08:24.900Z,5.90
2018-02-22T05:09:24.883Z,6.40
2018-02-22T05:10:24.890Z,6.30
2018-02-22T05:11:24.887Z,5.80
2018-02-22T05:12:24.882Z,5.70
2018-02-22T05:13:24.871Z,6.00
2018-02-22T05:14:24.870Z,5.80
2018-02-22T05:15:24.858Z,6.10
2018-02-22T05:16:24.858Z,6.00
2018-02-22T05:17:24.847Z,5.90
2018-02-22T05:18:24.838Z,5.50
2018-02-22T05:19:24.832Z,6.00
2018-02-22T05:20:24.826Z,5.80
2018-02-22T05:21:24.828Z,5.70
2018-02-22T05:22:24.819Z,5.60
2018-02-22T05:23:24.811Z,6.10
2018-02-22T05:24:24.806Z,5.90
2018-02-22T05:25:24.797Z,5.70
2018-02-22T05:26:24.793Z,5.70
2018-02-22T05:27:24.797Z,6.00
2018-02-22T05:28:24.789Z,5.90
2018-02-22T05:29:24.868Z,5.90
2018-02-22T05:30:24.774Z,6.00
2018-02-22T05:31:24.766Z,6.00
2018-02-22T05:32:24.767Z,6.00
2018-02-22T05:33:24.766Z,5.80
2018-02-22T05:34:24.787Z,5.70
2018-02-22T05:35:24.750Z,5.80
2018-02-22T05:36:24.739Z,5.90
2018-02-22T05:37:24.743Z,5.50
2018-02-22T05:38:24.728Z,5.90
2018-02-22T05:39:24.717Z,5.60
2018-02-22T05:40:24.719Z,6.10
2018-02-22T05:41:24.725Z,6.00
2018-02-22T05:42:24.723Z,5.90
2018-02-22T05:43:24.704Z,5.80
2018-02-22T05:44:24.699Z,6.10
2018-02-22T05:45:24.698Z,5.90
2018-02-22T05:46:24.683Z,5.70
2018-02-22T05:47:24.685Z,5.70
2018-02-22T05:48:24.670Z,5.80
2018-02-22T05:49:24.668Z,5.90
2018-02-22T05:50:24.663Z,5.70
2018-02-22T05:51:24.644Z,5.70
2018-02-22T05:52:24.650Z,5.70
2018-02-22T05:53:24.634Z,5.70
2018-02-22T05:54:24.642Z,5.50
2018-02-22T05:55:24.630Z,5.50
2018-02-22T05:56:24.629Z,5.30
2018-02-22T05:57:24.618Z,5.40
2018-02-22T05:58:24.615Z,5.50
2018-02-22T05:59:24.611Z,5.90
2018-02-22T06:00:24.610Z,5.70
2018-02-22T06:01:24.605Z,6.10
2018-02-22T06:02:24.599Z,5.70
2018-02-22T06:03:24.597Z,5.60
2018-02-22T06:04:24.579Z,5.40
2018-02-22T06:05:24.591Z,6.00
2018-02-22T06:06:24.574Z,5.70
2018-02-22T06:07:24.569Z,5.60
2018-02-22T06:08:24.560Z,5.30
2018-02-22T06:09:24.560Z,5.40
2018-02-22T06:10:24.559Z,5.40
2018-02-22T06:11:24.542Z,5.60
2018-02-22T06:12:24.548Z,5.30
2018-02-22T06:13:24.536Z,5.60
2018-02-22T06:14:24.531Z,5.30
2018-02-22T06:15:24.521Z,5.40
2018-02-22T06:16:24.521Z,5.70
2018-02-22T06:17:24.509Z,5.60
2018-02-22T06:18:24.503Z,6.40
2018-02-22T06:19:24.490Z,5.90
2018-02-22T06:20:24.491Z,5.70
2018-02-22T06:21:24.488Z,5.80
2018-02-22T06:22:24.475Z,5.70
2018-02-22T06:23:24.481Z,5.30
2018-02-22T06:24:24.466Z,5.80
2018-02-22T06:25:24.469Z,5.50
2018-02-22T06:26:24.462Z,5.40
2018-02-22T06:27:24.458Z,5.40
2018-02-22T06:28:24.474Z,5.40
2018-02-22T06:29:24.431Z,5.70
2018-02-22T06:30:24.431Z,5.60
2018-02-22T06:31:24.433Z,5.70
2018-02-22T06:32:24.420Z,5.60
2018-02-22T06:33:24.423Z,5.70
2018-02-22T06:34:24.414Z,5.60
2018-02-22T06:35:24.416Z,5.70
2018-02-22T06:36:24.405Z,5.70
2018-02-22T06:37:24.387Z,5.50
2018-02-22T06:38:24.386Z,5.60
2018-02-22T06:39:24.389Z,5.90
2018-02-22T06:40:24.382Z,5.60
2018-02-22T06:41:24.374Z,5.50
2018-02-22T06:42:24.373Z,5.50
2018-02-22T06:43:24.365Z,5.80
2018-02-22T06:44:24.352Z,5.70
2018-02-22T06:45:24.359Z,5.60
2018-02-22T06:46:24.345Z,5.70
2018-02-22T06:47:24.337Z,5.00
2018-02-22T06:48:24.334Z,5.60
2018-02-22T06:49:24.330Z,5.90
2018-02-22T06:50:24.314Z,4.80
2018-02-22T06:51:24.324Z,5.50
2018-02-22T06:52:24.327Z,5.50
2018-02-22T06:53:24.315Z,5.50
2018-02-22T06:54:24.309Z,5.50
2018-02-22T06:55:24.299Z,5.30
2018-02-22T06:56:24.290Z,5.40
2018-02-22T06:57:24.285Z,5.20
2018-02-22T06:58:24.280Z,5.20
2018-02-22T06:59:24.274Z,5.30
2018-02-22T07:00:24.271Z,5.30
2018-02-22T07:01:24.274Z,5.60
2018-02-22T07:02:24.256Z,5.60
2018-02-22T07:03:24.255Z,5.90
2018-02-22T07:04:24.244Z,5.80
2018-02-22T07:05:24.248Z,5.60
2018-02-22T07:06:24.242Z,5.20
2018-02-22T07:07:24.235Z,5.10
2018-02-22T07:08:24.230Z,5.60
2018-02-22T07:09:24.224Z,5.50
2018-02-22T07:10:24.220Z,5.30
2018-02-22T07:11:24.210Z,5.30
2018-02-22T07:12:24.200Z,5.30
2018-02-22T07:13:24.200Z,5.60
2018-02-22T07:14:24.198Z,5.20
2018-02-22T07:15:24.191Z,5.20
2018-02-22T07:16:24.189Z,5.10
2018-02-22T07:17:24.176Z,5.20
2018-02-22T07:18:24.164Z,5.60
2018-02-22T07:19:24.162Z,5.50
2018-02-22T07:20:24.145Z,5.30
2018-02-22T07:21:24.150Z,5.40
2018-02-22T07:22:24.142Z,5.60
2018-02-22T07:23:24.196Z,5.20
2018-02-22T07:24:24.139Z,5.10
2018-02-22T07:25:24.147Z,5.00
2018-02-22T07:26:24.132Z,5.50
2018-02-22T07:27:24.124Z,5.60
2018-02-22T07:28:24.113Z,5.10
2018-02-22T07:29:24.111Z,5.10
2018-02-22T07:30:24.095Z,5.50
2018-02-22T07:31:24.103Z,5.30
2018-02-22T07:32:24.085Z,5.20
2018-02-22T07:33:24.084Z,5.30
2018-02-22T07:34:24.074Z,5.50
2018-02-22T07:35:24.076Z,5.20
2018-02-22T07:36:24.070Z,5.10
2018-02-22T07:37:24.051Z,5.40
2018-02-22T07:38:24.058Z,5.40
2018-02-22T07:39:24.057Z,5.20
2018-02-22T07:40:24.047Z,5.20
2018-02-22T07:41:24.060Z,5.10
2018-02-22T07:42:24.040Z,5.40
2018-02-22T07:43:24.037Z,5.30
2018-02-22T07:44:24.026Z,5.10
2018-02-22T07:45:24.012Z,5.10
2018-02-22T07:46:24.017Z,5.20
2018-02-22T07:47:24.011Z,4.90
2018-02-22T07:48:24.000Z,5.60
2018-02-22T07:49:23.998Z,5.20
2018-02-22T07:50:24.001Z,5.30
2018-02-22T07:51:23.980Z,5.20
2018-02-22T07:52:23.977Z,5.50
2018-02-22T07:53:23.991Z,5.00
2018-02-22T07:54:23.972Z,5.10
2018-02-22T07:55:23.972Z,5.30
2018-02-22T07:56:23.961Z,5.10
2018-02-22T07:57:23.954Z,5.40
2018-02-22T07:58:23.956Z,5.10
2018-02-22T07:59:23.943Z,5.40
2018-02-22T08:00:23.935Z,5.30
2018-02-22T08:01:23.921Z,5.30
2018-02-22T08:02:23.940Z,4.90
2018-02-22T08:03:23.923Z,5.20
2018-02-22T08:04:23.920Z,5.10
2018-02-22T08:05:23.902Z,5.10
2018-02-22T08:06:23.906Z,5.10
2018-02-22T08:07:23.897Z,5.10
2018-02-22T08:08:23.896Z,5.10
2018-02-22T08:09:23.890Z,5.10
2018-02-22T08:10:23.892Z,5.40
2018-02-22T08:11:23.871Z,5.30
2018-02-22T08:12:23.869Z,5.50
2018-02-22T08:13:23.861Z,5.10
2018-02-22T08:14:23.863Z,4.60
2018-02-22T08:15:23.847Z,5.30
2018-02-22T08:16:23.842Z,5.20
2018-02-22T08:17:23.851Z,5.10
2018-02-22T08:18:23.836Z,5.00
2018-02-22T08:19:23.839Z,4.70
2018-02-22T08:20:23.814Z,5.10
2018-02-22T08:21:23.826Z,4.70
2018-02-22T08:22:23.812Z,5.00
2018-02-22T08:23:23.804Z,5.10
2018-02-22T08:24:23.807Z,5.10
2018-02-22T08:25:23.802Z,5.20
2018-02-22T08:26:23.799Z,5.20
2018-02-22T08:27:23.792Z,5.30
2018-02-22T08:28:23.781Z,5.10
2018-02-22T08:29:23.776Z,5.00
2018-02-22T08:30:23.778Z,5.20
2018-02-22T08:31:23.768Z,5.00
2018-02-22T08:32:23.762Z,5.50
2018-02-22T08:33:23.757Z,5.40
2018-02-22T08:34:23.756Z,5.60
2018-02-22T08:35:23.742Z,5.40
2018-02-22T08:36:23.736Z,5.70
2018-02-22T08:37:23.738Z,5.00
2018-02-22T08:38:23.724Z,5.00
2018-02-22T08:39:23.727Z,5.00
2018-02-22T08:40:23.720Z,5.50
2018-02-22T08:41:23.717Z,5.30
2018-02-22T08:42:23.703Z,5.30
2018-02-22T08:43:23.712Z,4.90
2018-02-22T08:44:23.702Z,5.30
2018-02-22T08:45:23.693Z,5.10
2018-02-22T08:46:23.691Z,5.00
2018-02-22T08:47:23.690Z,4.90
2018-02-22T08:48:23.684Z,6.30
2018-02-22T08:49:23.666Z,5.00
2018-02-22T08:50:23.668Z,4.90
2018-02-22T08:51:23.660Z,4.80
2018-02-22T08:52:23.653Z,5.00
2018-02-22T08:53:23.646Z,4.90
2018-02-22T08:54:23.642Z,4.90
2018-02-22T08:55:23.637Z,5.00
2018-02-22T08:56:23.636Z,5.00
2018-02-22T08:57:23.637Z,5.10
2018-02-22T08:58:23.637Z,5.20
2018-02-22T08:59:23.618Z,5.00
2018-02-22T09:00:23.614Z,5.00
2018-02-22T09:01:23.605Z,4.80
2018-02-22T09:02:23.613Z,5.00
2018-02-22T09:03:23.603Z,4.60
2018-02-22T09:04:23.595Z,5.20
2018-02-22T09:05:23.596Z,5.00
2018-02-22T09:06:23.583Z,4.80
2018-02-22T09:07:23.576Z,5.00
2018-02-22T09:08:23.578Z,4.90
2018-02-22T09:09:23.572Z,4.50
2018-02-22T09:10:23.569Z,4.70
2018-02-22T09:11:23.563Z,4.70
2018-02-22T09:12:23.567Z,4.80
2018-02-22T09:13:23.561Z,4.50
2018-02-22T09:14:23.553Z,5.10
2018-02-22T09:15:23.538Z,4.60
2018-02-22T09:16:23.542Z,4.70
2018-02-22T09:17:23.535Z,4.60
2018-02-22T09:18:23.533Z,4.80
2018-02-22T09:19:23.519Z,4.70
2018-02-22T09:20:23.512Z,4.70
2018-02-22T09:21:23.515Z,4.40
2018-02-22T09:22:23.512Z,4.30
2018-02-22T09:23:23.503Z,4.70
2018-02-22T09:24:23.499Z,4.50
2018-02-22T09:25:23.487Z,4.70
2018-02-22T09:26:23.489Z,4.70
2018-02-22T09:27:23.478Z,4.30
2018-02-22T09:28:23.488Z,4.80
2018-02-22T09:29:23.474Z,4.30
2018-02-22T09:30:23.457Z,4.60
2018-02-22T09:31:23.467Z,4.60
2018-02-22T09:32:23.457Z,4.60
2018-02-22T09:33:23.447Z,4.30
2018-02-22T09:34:23.441Z,4.90
2018-02-22T09:35:23.439Z,4.30
2018-02-22T09:36:23.437Z,4.60
2018-02-22T09:37:23.432Z,4.40
2018-02-22T09:38:23.428Z,4.30
2018-02-22T09:39:23.423Z,4.60
2018-02-22T09:40:23.433Z,4.20
2018-02-22T09:41:23.428Z,4.30
2018-02-22T09:42:23.409Z,4.70
2018-02-22T09:43:23.400Z,4.80
2018-02-22T09:44:23.409Z,4.40
2018-02-22T09:45:23.413Z,4.30
2018-02-22T09:46:23.397Z,4.30
2018-02-22T09:47:23.387Z,4.50
2018-02-22T09:48:23.390Z,4.10
2018-02-22T09:49:23.386Z,4.50
2018-02-22T09:50:23.374Z,4.60
2018-02-22T09:51:23.382Z,4.10
2018-02-22T09:52:23.358Z,4.60
2018-02-22T09:53:23.362Z,4.50
2018-02-22T09:54:23.349Z,4.60
2018-02-22T09:55:23.347Z,4.20
2018-02-22T09:56:23.350Z,4.30
2018-02-22T09:57:23.343Z,4.70
2018-02-22T09:58:23.329Z,4.50
2018-02-22T09:59:23.335Z,4.70
2018-02-22T10:00:23.337Z,4.60
2018-02-22T10:01:23.326Z,4.50
2018-02-22T10:02:23.322Z,4.50
2018-02-22T10:03:23.326Z,4.40
2018-02-22T10:04:23.303Z,4.40
2018-02-22T10:05:23.302Z,4.60
2018-02-22T10:06:23.300Z,4.50
2018-02-22T10:07:23.301Z,4.50
2018-02-22T10:08:23.298Z,4.50
2018-02-22T10:09:23.300Z,4.50
2018-02-22T10:10:23.285Z,4.20
2018-02-22T10:11:23.290Z,4.30
2018-02-22T10:12:23.271Z,4.40
2018-02-22T10:13:23.274Z,4.40
2018-02-22T10:14:23.259Z,4.50
2018-02-22T10:15:23.264Z,4.70
2018-02-22T10:16:23.254Z,3.90
2018-02-22T10:17:23.246Z,4.30
2018-02-22T10:18:23.240Z,4.20
2018-02-22T10:19:23.243Z,4.30
2018-02-22T10:20:23.249Z,4.00
2018-02-22T10:21:23.239Z,4.50
2018-02-22T10:22:23.236Z,4.50
2018-02-22T10:23:23.222Z,4.20
2018-02-22T10:24:23.218Z,4.30
2018-02-22T10:25:23.206Z,4.20
2018-02-22T10:26:23.211Z,4.20
2018-02-22T10:27:23.199Z,4.50
2018-02-22T10:28:23.195Z,4.20
2018-02-22T10:29:23.211Z,4.10
2018-02-22T10:30:23.199Z,4.00
2018-02-22T10:31:23.188Z,4.00
2018-02-22T10:32:23.189Z,4.20
2018-02-22T10:33:23.175Z,4.40
2018-02-22T10:34:23.179Z,4.20
2018-02-22T10:35:23.182Z,4.00
2018-02-22T10:36:23.168Z,4.00
2018-02-22T10:37:23.162Z,4.30
2018-02-22T10:38:23.155Z,4.40
2018-02-22T10:39:23.159Z,4.20
2018-02-22T10:40:23.153Z,4.00
2018-02-22T10:41:23.144Z,4.20
2018-02-22T10:42:23.145Z,4.20
2018-02-22T10:43:23.136Z,4.20
2018-02-22T10:44:23.135Z,4.10
2018-02-22T10:45:23.130Z,4.00
2018-02-22T10:46:23.129Z,4.00
2018-02-22T10:47:23.119Z,4.10
2018-02-22T10:48:23.101Z,4.30
2018-02-22T10:49:23.110Z,4.10
2018-02-22T10:50:23.106Z,4.20
2018-02-22T10:51:23.110Z,4.10
2018-02-22T10:52:23.093Z,4.30
2018-02-22T10:53:23.085Z,4.30
2018-02-22T10:54:23.089Z,4.20
2018-02-22T10:55:23.090Z,4.20
2018-02-22T10:56:23.095Z,4.10
2018-02-22T10:57:23.066Z,3.90
2018-02-22T10:58:23.068Z,4.20
2018-02-22T10:59:23.073Z,4.10
2018-02-22T11:00:23.058Z,4.20
2018-02-22T11:01:23.060Z,4.10
2018-02-22T11:02:23.056Z,3.90
2018-02-22T11:03:23.038Z,4.20
2018-02-22T11:04:23.039Z,3.90
2018-02-22T11:05:23.050Z,4.40
2018-02-22T11:06:23.034Z,3.90
2018-02-22T11:07:23.032Z,4.10
2018-02-22T11:08:23.027Z,4.10
2018-02-22T11:09:23.021Z,4.20
2018-02-22T11:10:23.019Z,3.90
2018-02-22T11:11:23.016Z,4.00
2018-02-22T11:12:23.000Z,4.10
2018-02-22T11:13:23.001Z,4.00
2018-02-22T11:14:22.999Z,4.10
2018-02-22T11:15:23.000Z,4.40
2018-02-22T11:16:22.988Z,4.10
2018-02-22T11:17:22.996Z,3.80
2018-02-22T11:18:22.974Z,4.00
2018-02-22T11:19:22.978Z,4.00
2018-02-22T11:20:22.992Z,4.20
2018-02-22T11:21:22.958Z,4.30
2018-02-22T11:22:22.958Z,3.80
2018-02-22T11:23:22.957Z,3.90
2018-02-22T11:24:22.964Z,4.00
2018-02-22T11:25:22.947Z,3.90
2018-02-22T11:26:22.967Z,3.70
2018-02-22T11:27:22.937Z,4.00
2018-02-22T11:28:22.938Z,4.10
2018-02-22T11:29:22.925Z,3.90
2018-02-22T11:30:22.927Z,3.80
2018-02-22T11:31:22.923Z,4.20
2018-02-22T11:32:22.917Z,3.80
2018-02-22T11:33:22.930Z,4.00
2018-02-22T11:34:22.927Z,3.80
2018-02-22T11:35:22.902Z,4.00
2018-02-22T11:36:22.891Z,3.90
2018-02-22T11:37:22.906Z,3.70
2018-02-22T11:38:22.909Z,3.80
2018-02-22T11:39:22.890Z,3.70
2018-02-22T11:40:22.886Z,4.00
2018-02-22T11:41:22.887Z,3.90
2018-02-22T11:42:22.868Z,3.80
2018-02-22T11:43:22.876Z,4.10
2018-02-22T11:44:22.871Z,3.70
2018-02-22T11:45:22.868Z,3.80
2018-02-22T11:46:22.883Z,3.80
2018-02-22T11:47:22.859Z,4.00
2018-02-22T11:48:22.852Z,3.90
2018-02-22T11:49:22.834Z,3.80
2018-02-22T11:50:22.856Z,3.70
2018-02-22T11:51:22.846Z,3.90
2018-02-22T11:52:22.832Z,3.90
2018-02-22T11:53:22.835Z,3.80
2018-02-22T11:54:22.827Z,3.70
2018-02-22T11:55:22.817Z,3.90
2018-02-22T11:56:22.805Z,3.70
2018-02-22T11:57:22.805Z,3.90
2018-02-22T11:58:22.806Z,3.80
2018-02-22T11:59:22.801Z,3.70
2018-02-22T12:00:22.794Z,4.00
2018-02-22T12:01:22.790Z,3.80
2018-02-22T12:02:22.786Z,3.90
2018-02-22T12:03:22.783Z,4.00
2018-02-22T12:04:22.771Z,3.90
2018-02-22T12:05:22.770Z,3.90
2018-02-22T12:06:22.774Z,3.70
2018-02-22T12:07:22.763Z,3.80
2018-02-22T12:08:22.777Z,3.80
2018-02-22T12:09:22.760Z,3.80
2018-02-22T12:10:22.752Z,3.90
2018-02-22T12:11:22.776Z,3.80
2018-02-22T12:12:22.743Z,3.50
2018-02-22T12:13:22.741Z,3.80
2018-02-22T12:14:22.737Z,3.70
2018-02-22T12:15:22.724Z,3.60
2018-02-22T12:16:22.719Z,3.80
2018-02-22T12:17:22.718Z,3.80
2018-02-22T12:18:22.707Z,3.70
2018-02-22T12:19:22.726Z,3.60
2018-02-22T12:20:22.702Z,3.50
2018-02-22T12:21:22.698Z,3.80
2018-02-22T12:22:22.698Z,3.90
2018-02-22T12:23:22.689Z,3.70
2018-02-22T12:24:22.686Z,3.90
2018-02-22T12:25:22.692Z,3.60
2018-02-22T12:26:22.676Z,3.40
2018-02-22T12:27:22.672Z,4.00
2018-02-22T12:28:22.672Z,3.60
2018-02-22T12:29:22.663Z,3.60
2018-02-22T12:30:22.667Z,3.70
2018-02-22T12:31:22.651Z,3.60
2018-02-22T12:32:22.657Z,3.50
2018-02-22T12:33:22.654Z,3.70
2018-02-22T12:34:22.646Z,3.70
2018-02-22T12:35:22.630Z,3.70
2018-02-22T12:36:22.626Z,3.50
2018-02-22T12:37:22.632Z,3.40
2018-02-22T12:38:22.629Z,3.70
2018-02-22T12:39:22.612Z,3.50
2018-02-22T12:40:22.610Z,3.50
2018-02-22T12:41:22.607Z,3.40
2018-02-22T12:42:22.620Z,3.60
2018-02-22T12:43:22.598Z,3.60
2018-02-22T12:44:22.597Z,3.40
2018-02-22T12:45:22.605Z,3.60
2018-02-22T12:46:22.588Z,3.50
2018-02-22T12:47:22.578Z,3.70
2018-02-22T12:48:22.566Z,3.50
2018-02-22T12:49:22.575Z,3.80
2018-02-22T12:50:22.586Z,3.40
2018-02-22T12:51:22.567Z,3.60
2018-02-22T12:52:22.552Z,3.70
2018-02-22T12:53:22.556Z,3.40
2018-02-22T12:54:22.551Z,3.50
2018-02-22T12:55:22.542Z,3.60
2018-02-22T12:56:22.544Z,3.30
2018-02-22T12:57:22.528Z,3.70
2018-02-22T12:58:22.536Z,3.80
2018-02-22T12:59:22.536Z,3.60
2018-02-22T13:00:22.510Z,3.70
2018-02-22T13:01:22.531Z,3.40
2018-02-22T13:02:22.518Z,3.30
2018-02-22T13:03:22.504Z,3.50
2018-02-22T13:04:22.498Z,3.50
2018-02-22T13:05:22.506Z,3.40
2018-02-22T13:06:22.487Z,3.30
2018-02-22T13:07:22.480Z,3.40
2018-02-22T13:08:22.477Z,3.50
2018-02-22T13:09:22.471Z,3.30
2018-02-22T13:10:22.478Z,3.60
2018-02-22T13:11:22.463Z,3.40
2018-02-22T13:12:22.456Z,3.50
2018-02-22T13:13:22.467Z,3.40
2018-02-22T13:14:22.467Z,3.30
2018-02-22T13:15:22.461Z,3.20
2018-02-22T13:16:22.444Z,3.30
2018-02-22T13:17:22.458Z,3.20
2018-02-22T13:18:22.430Z,3.20